createdAt,value
2019-05-20T00:00:31.447Z,42.13
2019-05-20T00:03:35.150Z,37.20
2019-05-20T00:06:38.843Z,40.63
2019-05-20T00:09:42.629Z,36.60
2019-05-20T00:12:46.311Z,36.73
2019-05-20T00:15:50.010Z,37.30
2019-05-20T00:18:53.994Z,37.17
2019-05-20T00:21:57.960Z,36.23
2019-05-20T00:25:01.689Z,41.70
2019-05-20T00:28:05.389Z,32.83
2019-05-20T00:31:09.078Z,35.07
2019-05-20T00:34:12.790Z,32.07
2019-05-20T00:37:16.509Z,28.83
2019-05-20T00:40:20.212Z,31.73
2019-05-20T00:43:23.925Z,28.53
2019-05-20T00:46:27.619Z,33.97
2019-05-20T00:49:31.731Z,32.03
2019-05-20T00:52:35.509Z,24.50
2019-05-20T00:55:40.464Z,30.90
2019-05-20T00:58:44.150Z,37.13
2019-05-20T01:01:48.033Z,33.73
2019-05-20T01:04:51.720Z,38.47
2019-05-20T01:07:55.406Z,29.67
2019-05-20T01:10:59.109Z,27.73
2019-05-20T01:14:02.818Z,25.80
2019-05-20T01:17:06.516Z,42.90
2019-05-20T01:20:10.767Z,37.50
2019-05-20T01:23:14.464Z,33.23
2019-05-20T01:26:18.407Z,27.60
2019-05-20T01:29:22.413Z,26.43
2019-05-20T01:32:26.134Z,30.83
2019-05-20T01:35:29.830Z,33.13
2019-05-20T01:38:33.841Z,29.37
2019-05-20T01:41:37.567Z,28.73
2019-05-20T01:44:41.264Z,23.53
2019-05-20T01:47:44.955Z,24.13
2019-05-20T01:50:48.652Z,27.57
2019-05-20T01:53:52.384Z,23.97
2019-05-20T01:56:56.075Z,24.90
2019-05-20T01:59:59.806Z,27.33
2019-05-20T02:03:03.505Z,28.57
2019-05-20T02:06:07.482Z,32.13
2019-05-20T02:09:11.238Z,24.83
2019-05-20T02:12:14.938Z,26.53
2019-05-20T02:15:25.947Z,25.80
2019-05-20T02:18:29.675Z,26.67
2019-05-20T02:21:33.358Z,21.30
2019-05-20T02:24:37.078Z,27.13
2019-05-20T02:27:40.775Z,23.13
2019-05-20T02:30:44.477Z,25.80
2019-05-20T02:33:52.093Z,31.43
2019-05-20T02:36:54.183Z,28.17
2019-05-20T02:39:57.873Z,21.80
2019-05-20T02:43:01.765Z,31.10
2019-05-20T02:46:06.533Z,26.47
2019-05-20T02:49:10.306Z,22.00
2019-05-20T02:52:14.016Z,23.23
2019-05-20T02:55:17.763Z,19.87
2019-05-20T02:58:21.486Z,21.50
2019-05-20T03:01:25.858Z,23.23
2019-05-20T03:04:29.577Z,25.10
2019-05-20T03:07:33.272Z,25.43
2019-05-20T03:10:36.966Z,24.70
2019-05-20T03:13:41.003Z,24.43
2019-05-20T03:16:44.746Z,25.93
2019-05-20T03:19:48.789Z,29.10
2019-05-20T03:22:52.484Z,27.50
2019-05-20T03:25:56.426Z,23.53
2019-05-20T03:29:00.139Z,31.03
2019-05-20T03:32:03.874Z,23.57
2019-05-20T03:35:08.171Z,23.87
2019-05-20T03:38:11.899Z,20.30
2019-05-20T03:41:15.589Z,24.23
2019-05-20T03:44:19.390Z,20.63
2019-05-20T03:47:23.086Z,19.47
2019-05-20T03:50:26.881Z,23.67
2019-05-20T03:53:30.575Z,18.63
2019-05-20T03:56:34.339Z,16.90
2019-05-20T03:59:38.036Z,16.77
2019-05-20T04:02:41.721Z,25.97
2019-05-20T04:05:45.778Z,14.97
2019-05-20T04:08:49.469Z,20.17
2019-05-20T04:11:53.160Z,15.17
2019-05-20T04:14:57.088Z,17.27
2019-05-20T04:18:00.785Z,20.37
2019-05-20T04:21:04.495Z,28.73
2019-05-20T04:24:08.314Z,16.00
2019-05-20T04:27:12.008Z,25.50
2019-05-20T04:30:18.990Z,12.20
2019-05-20T04:33:22.061Z,22.33
2019-05-20T04:36:25.859Z,13.37
2019-05-20T04:39:29.906Z,12.97
2019-05-20T04:42:33.604Z,14.53
2019-05-20T04:45:37.337Z,11.10
2019-05-20T04:48:41.024Z,12.20
2019-05-20T04:51:44.759Z,12.93
2019-05-20T04:54:48.450Z,12.33
2019-05-20T04:57:52.179Z,14.60
2019-05-20T05:00:59.536Z,15.73
2019-05-20T05:04:06.532Z,12.83
2019-05-20T05:07:10.321Z,13.70
2019-05-20T05:10:14.558Z,12.47
2019-05-20T05:13:18.547Z,13.50
2019-05-20T05:16:22.968Z,17.53
2019-05-20T05:19:26.687Z,15.97
2019-05-20T05:22:30.344Z,17.20
2019-05-20T05:25:34.718Z,16.53
2019-05-20T05:28:38.730Z,16.73
2019-05-20T05:31:42.794Z,15.73
2019-05-20T05:34:46.504Z,15.70
2019-05-20T05:37:50.409Z,14.57
2019-05-20T05:40:54.084Z,19.80
2019-05-20T05:43:57.796Z,16.20
2019-05-20T05:47:01.497Z,17.07
2019-05-20T05:50:05.687Z,15.63
2019-05-20T05:53:09.383Z,13.83
2019-05-20T05:56:13.440Z,16.53
2019-05-20T05:59:17.144Z,12.80
2019-05-20T06:02:20.909Z,12.10
2019-05-20T06:05:24.591Z,12.17
2019-05-20T06:08:28.281Z,11.53
2019-05-20T06:11:32.021Z,11.40
2019-05-20T06:14:35.721Z,12.73
2019-05-20T06:17:39.500Z,12.13
2019-05-20T06:20:43.209Z,15.63
2019-05-20T06:23:47.157Z,11.67
2019-05-20T06:26:50.841Z,11.70
2019-05-20T06:29:54.537Z,12.57
2019-05-20T06:32:58.333Z,12.70
2019-05-20T06:36:02.427Z,10.73
2019-05-20T06:39:13.723Z,12.83
2019-05-20T06:42:17.519Z,11.33
2019-05-20T06:45:21.577Z,14.40
2019-05-20T06:48:25.273Z,12.83
2019-05-20T06:51:28.966Z,12.13
2019-05-20T06:54:32.679Z,14.23
2019-05-20T06:57:36.367Z,10.87
2019-05-20T07:00:40.627Z,9.50
2019-05-20T07:03:44.322Z,13.53
2019-05-20T07:06:48.022Z,10.23
2019-05-20T07:09:51.717Z,9.17
2019-05-20T07:12:55.520Z,11.07
2019-05-20T07:15:59.527Z,9.67
2019-05-20T07:19:03.269Z,12.07
2019-05-20T07:22:07.039Z,9.17
2019-05-20T07:25:11.050Z,9.63
2019-05-20T07:28:14.722Z,8.73
2019-05-20T07:31:18.436Z,8.00
2019-05-20T07:34:22.212Z,9.70
2019-05-20T07:37:25.937Z,7.83
2019-05-20T07:40:33.758Z,11.10
2019-05-20T07:43:37.458Z,7.30
2019-05-20T07:46:41.233Z,8.37
2019-05-20T07:49:45.533Z,8.07
2019-05-20T07:52:49.247Z,11.67
2019-05-20T07:56:05.176Z,8.33
2019-05-20T07:59:12.166Z,7.53
2019-05-20T08:02:16.199Z,8.53
2019-05-20T08:05:20.021Z,9.77
2019-05-20T08:08:23.800Z,9.20
2019-05-20T08:11:27.683Z,11.43
2019-05-20T08:14:31.356Z,7.90
2019-05-20T08:17:35.210Z,8.30
2019-05-20T08:20:38.911Z,7.70
2019-05-20T08:23:42.604Z,7.17
2019-05-20T08:26:46.417Z,7.90
2019-05-20T08:29:50.170Z,7.10
2019-05-20T08:32:53.913Z,9.43
2019-05-20T08:35:57.602Z,8.87
2019-05-20T08:39:01.601Z,10.00
2019-05-20T08:42:05.318Z,9.10
2019-05-20T08:45:09.543Z,8.50
2019-05-20T08:48:13.262Z,8.13
2019-05-20T08:51:17.386Z,10.27
2019-05-20T08:54:21.157Z,9.87
2019-05-20T08:57:25.101Z,8.47
2019-05-20T09:00:29.182Z,8.03
2019-05-20T09:03:32.886Z,9.37
2019-05-20T09:06:36.571Z,7.67
2019-05-20T09:09:40.329Z,10.10
2019-05-20T09:12:44.259Z,8.67
2019-05-20T09:15:48.072Z,9.90
2019-05-20T09:18:52.027Z,11.20
2019-05-20T09:21:56.026Z,7.57
2019-05-20T09:24:59.910Z,8.73
2019-05-20T09:28:03.806Z,8.50
2019-05-20T09:31:07.944Z,8.07
2019-05-20T09:34:11.660Z,7.60
2019-05-20T09:37:15.634Z,8.50
2019-05-20T09:40:37.217Z,9.87
2019-05-20T09:43:40.995Z,9.03
2019-05-20T09:46:44.745Z,11.33
2019-05-20T09:49:48.449Z,9.47
2019-05-20T09:52:52.147Z,8.63
2019-05-20T09:55:55.863Z,8.67
2019-05-20T09:58:59.557Z,7.37
2019-05-20T10:02:03.282Z,8.57
2019-05-20T10:05:07.190Z,9.87
2019-05-20T10:08:10.876Z,7.67
2019-05-20T10:11:14.735Z,7.97
2019-05-20T10:14:18.462Z,8.07
2019-05-20T10:17:22.252Z,11.13
2019-05-20T10:20:25.954Z,9.70
2019-05-20T10:23:29.683Z,7.77
2019-05-20T10:26:33.345Z,7.70
2019-05-20T10:29:37.046Z,10.53
2019-05-20T10:32:40.743Z,10.23
2019-05-20T10:35:44.447Z,10.03
2019-05-20T10:38:58.634Z,9.07
2019-05-20T10:41:53.594Z,12.67
2019-05-20T10:44:57.301Z,9.77
2019-05-20T10:48:01.071Z,10.93
2019-05-20T10:51:04.805Z,8.00
2019-05-20T10:54:08.875Z,10.90
2019-05-20T10:57:12.671Z,9.90
2019-05-20T11:00:18.926Z,14.00
2019-05-20T11:03:22.620Z,12.00
2019-05-20T11:06:26.328Z,11.10
2019-05-20T11:09:30.688Z,10.30
2019-05-20T11:12:34.663Z,9.73
2019-05-20T11:15:38.364Z,8.63
2019-05-20T11:18:42.411Z,9.40
2019-05-20T11:21:46.112Z,9.67
2019-05-20T11:24:49.799Z,8.90
2019-05-20T11:27:53.570Z,7.50
2019-05-20T11:30:57.267Z,7.77
2019-05-20T11:34:01.573Z,13.03
2019-05-20T11:37:05.687Z,9.33
2019-05-20T11:40:11.821Z,8.63
2019-05-20T11:43:15.906Z,9.80
2019-05-20T11:46:19.594Z,9.07
2019-05-20T11:49:23.299Z,13.40
2019-05-20T11:52:27.304Z,8.27
2019-05-20T11:55:31.445Z,9.65
2019-05-20T11:58:35.088Z,8.85
2019-05-20T12:01:39.110Z,7.75
2019-05-20T12:04:42.801Z,8.28
2019-05-20T12:07:46.503Z,7.95
2019-05-20T12:10:50.201Z,7.87
2019-05-20T12:13:53.892Z,9.03
2019-05-20T12:16:57.590Z,8.20
2019-05-20T12:20:01.376Z,8.40
2019-05-20T12:23:05.167Z,10.20
2019-05-20T12:26:09.224Z,7.80
2019-05-20T12:29:13.201Z,7.13
2019-05-20T12:32:16.890Z,7.77
2019-05-20T12:35:21.027Z,9.63
2019-05-20T12:38:24.717Z,9.27
2019-05-20T12:41:28.567Z,9.63
2019-05-20T12:44:32.277Z,8.73
2019-05-20T12:47:36.265Z,9.13
2019-05-20T12:50:40.045Z,8.77
2019-05-20T12:53:43.852Z,8.03
2019-05-20T12:56:47.513Z,8.57
2019-05-20T12:59:51.209Z,7.80
2019-05-20T13:02:54.901Z,8.17
2019-05-20T13:05:59.158Z,12.50
2019-05-20T13:09:03.134Z,9.00
2019-05-20T13:12:07.152Z,11.83
2019-05-20T13:15:11.787Z,9.73
2019-05-20T13:18:15.426Z,9.17
2019-05-20T13:21:19.185Z,12.60
2019-05-20T13:24:22.829Z,15.90
2019-05-20T13:27:26.522Z,9.87
2019-05-20T13:30:30.364Z,9.47
2019-05-20T13:33:33.293Z,8.40
2019-05-20T13:36:36.962Z,10.83
2019-05-20T13:39:41.055Z,10.10
2019-05-20T13:42:44.867Z,21.40
2019-05-20T13:45:48.645Z,23.13
2019-05-20T13:48:52.329Z,14.23
2019-05-20T13:51:56.031Z,13.63
2019-05-20T13:54:59.731Z,9.13
2019-05-20T13:58:03.589Z,8.57
2019-05-20T14:01:07.341Z,10.10
2019-05-20T14:04:11.350Z,9.90
2019-05-20T14:07:15.058Z,10.57
2019-05-20T14:10:19.116Z,10.10
2019-05-20T14:13:23.089Z,8.57
2019-05-20T14:16:26.814Z,11.60
2019-05-20T14:19:30.509Z,10.23
2019-05-20T14:22:34.547Z,8.30
2019-05-20T14:25:38.254Z,13.07
2019-05-20T14:28:41.964Z,8.43
2019-05-20T14:31:45.840Z,9.83
2019-05-20T14:34:49.566Z,10.53
2019-05-20T14:37:53.613Z,23.07
2019-05-20T14:40:57.323Z,22.47
2019-05-20T14:44:01.317Z,10.00
2019-05-20T14:47:05.028Z,12.37
2019-05-20T14:50:09.219Z,10.13
2019-05-20T14:53:13.255Z,16.67
2019-05-20T14:56:17.245Z,10.10
2019-05-20T14:59:21.282Z,7.83
2019-05-20T15:02:24.988Z,9.17
2019-05-20T15:05:28.714Z,11.30
2019-05-20T15:08:34.378Z,8.17
2019-05-20T15:11:38.869Z,6.93
2019-05-20T15:14:42.771Z,8.40
2019-05-20T15:17:46.486Z,8.73
2019-05-20T15:20:50.274Z,7.17
2019-05-20T15:23:53.973Z,7.83
2019-05-20T15:26:57.683Z,13.83
2019-05-20T15:30:02.140Z,10.60
2019-05-20T15:33:05.846Z,9.00
2019-05-20T15:36:09.534Z,9.33
2019-05-20T15:39:13.351Z,8.97
2019-05-20T15:42:17.041Z,18.40
2019-05-20T15:45:20.918Z,22.77
2019-05-20T15:48:24.875Z,17.27
2019-05-20T15:51:28.578Z,9.57
2019-05-20T15:54:32.282Z,19.87
2019-05-20T15:57:35.971Z,12.43
2019-05-20T16:00:39.686Z,21.60
2019-05-20T16:03:43.396Z,19.43
2019-05-20T16:06:47.265Z,13.10
2019-05-20T16:09:51.380Z,14.17
2019-05-20T16:12:55.093Z,13.50
2019-05-20T16:15:58.807Z,11.00
2019-05-20T16:19:02.515Z,10.93
2019-05-20T16:22:06.652Z,11.33
2019-05-20T16:25:10.926Z,10.57
2019-05-20T16:28:15.215Z,10.20
2019-05-20T16:31:18.917Z,11.03
2019-05-20T16:34:22.624Z,12.73
2019-05-20T16:37:46.846Z,9.80
2019-05-20T16:44:38.810Z,10.33
2019-05-20T16:47:52.129Z,10.60
2019-05-20T16:51:09.949Z,9.50
2019-05-20T16:54:30.728Z,12.40
2019-05-20T16:57:36.381Z,8.50
2019-05-20T17:00:40.085Z,8.33
2019-05-20T17:03:43.852Z,8.60
2019-05-20T17:06:47.553Z,11.33
2019-05-20T17:09:51.553Z,11.40
2019-05-20T17:12:55.363Z,10.13
2019-05-20T17:15:59.065Z,8.53
2019-05-20T17:19:02.751Z,8.73
2019-05-20T17:22:06.725Z,8.77
2019-05-20T17:25:10.862Z,8.83
2019-05-20T17:28:14.562Z,10.77
2019-05-20T17:31:18.268Z,11.27
2019-05-20T17:34:21.956Z,8.17
2019-05-20T17:37:25.673Z,9.40
2019-05-20T17:40:29.818Z,8.63
2019-05-20T17:43:33.523Z,8.73
2019-05-20T17:46:37.234Z,8.83
2019-05-20T17:49:41.006Z,11.23
2019-05-20T17:52:44.782Z,8.67
2019-05-20T17:55:48.758Z,10.97
2019-05-20T17:58:52.450Z,11.40
2019-05-20T18:01:56.141Z,9.37
2019-05-20T18:04:59.847Z,10.93
2019-05-20T18:08:03.541Z,9.80
2019-05-20T18:11:07.238Z,10.33
2019-05-20T18:14:11.217Z,10.33
2019-05-20T18:17:14.985Z,8.00
2019-05-20T18:20:18.831Z,10.93
2019-05-20T18:23:22.532Z,8.90
2019-05-20T18:26:26.220Z,9.67
2019-05-20T18:29:29.923Z,10.90
2019-05-20T18:32:33.622Z,13.07
2019-05-20T18:35:37.323Z,11.27
2019-05-20T18:38:41.155Z,10.53
2019-05-20T18:41:44.863Z,12.97
2019-05-20T18:44:48.562Z,8.50
2019-05-20T18:47:52.275Z,11.17
2019-05-20T18:50:55.976Z,7.97
2019-05-20T18:53:59.762Z,9.03
2019-05-20T18:57:03.569Z,8.97
2019-05-20T19:00:08.544Z,10.63
2019-05-20T19:03:12.249Z,11.60
2019-05-20T19:06:15.948Z,9.60
2019-05-20T19:09:19.771Z,10.93
2019-05-20T19:12:23.476Z,12.27
2019-05-20T19:15:27.356Z,9.27
2019-05-20T19:18:31.302Z,10.60
2019-05-20T19:21:35.019Z,10.53
2019-05-20T19:24:38.721Z,9.63
2019-05-20T19:27:42.470Z,9.50
2019-05-20T19:30:46.176Z,10.37
2019-05-20T19:33:49.874Z,10.00
2019-05-20T19:36:53.582Z,10.17
2019-05-20T19:39:57.304Z,11.93
2019-05-20T19:43:01.490Z,9.20
2019-05-20T19:46:05.443Z,12.27
2019-05-20T19:49:09.722Z,11.70
2019-05-20T19:52:13.470Z,12.40
2019-05-20T19:55:18.908Z,9.83
2019-05-20T19:58:22.711Z,10.53
2019-05-20T20:01:26.419Z,9.67
2019-05-20T20:04:30.416Z,11.47
2019-05-20T20:07:34.405Z,11.00
2019-05-20T20:10:38.104Z,9.63
2019-05-20T20:13:41.799Z,12.30
2019-05-20T20:16:45.806Z,10.07
2019-05-20T20:19:49.506Z,8.57
2019-05-20T20:22:53.193Z,7.83
2019-05-20T20:25:57.276Z,13.97
2019-05-20T20:29:01.130Z,12.07
2019-05-20T20:32:04.831Z,11.13
2019-05-20T20:35:09.301Z,12.73
2019-05-20T20:38:13.032Z,14.70
2019-05-20T20:41:16.737Z,15.20
2019-05-20T20:44:20.448Z,12.90
2019-05-20T20:47:24.233Z,18.90
2019-05-20T20:50:28.090Z,11.27
2019-05-20T20:53:32.496Z,13.90
2019-05-20T20:56:36.201Z,11.93
2019-05-20T20:59:39.975Z,14.97
2019-05-20T21:02:52.973Z,17.03
2019-05-20T21:05:49.107Z,13.83
2019-05-20T21:08:53.164Z,15.40
2019-05-20T21:11:56.872Z,14.63
2019-05-20T21:15:00.883Z,12.97
2019-05-20T21:18:04.708Z,21.10
2019-05-20T21:21:08.731Z,16.83
2019-05-20T21:24:12.682Z,17.70
2019-05-20T21:27:16.387Z,94.03
2019-05-20T21:30:20.160Z,19.13
2019-05-20T21:33:23.872Z,21.90
2019-05-20T21:36:27.632Z,17.57
2019-05-20T21:39:31.339Z,20.47
2019-05-20T21:42:35.207Z,21.10
2019-05-20T21:45:38.903Z,17.93
2019-05-20T21:48:42.609Z,19.10
2019-05-20T21:51:46.599Z,20.67
2019-05-20T21:54:50.301Z,28.03
2019-05-20T21:57:54.022Z,21.13
2019-05-20T22:00:57.836Z,19.70
2019-05-20T22:04:01.559Z,18.90
2019-05-20T22:07:05.516Z,17.80
2019-05-20T22:10:09.884Z,21.57
2019-05-20T22:13:13.584Z,16.17
2019-05-20T22:16:17.865Z,14.23
2019-05-20T22:19:21.586Z,12.63
2019-05-20T22:22:36.916Z,14.83
2019-05-20T22:25:40.622Z,13.10
2019-05-20T22:28:44.326Z,12.10
2019-05-20T22:31:48.068Z,14.67
2019-05-20T22:34:53.877Z,12.80
2019-05-20T22:37:57.783Z,12.07
2019-05-20T22:41:01.788Z,13.17
2019-05-20T22:44:05.485Z,9.83
2019-05-20T22:47:09.222Z,12.13
2019-05-20T22:50:12.917Z,9.67
2019-05-20T22:53:16.614Z,9.60
2019-05-20T22:56:20.435Z,9.77
2019-05-20T22:59:24.135Z,12.13
2019-05-20T23:02:28.127Z,12.27
2019-05-20T23:05:31.837Z,11.87
2019-05-20T23:08:35.617Z,9.83
2019-05-20T23:11:39.325Z,9.37
2019-05-20T23:14:43.039Z,8.00
2019-05-20T23:17:46.742Z,8.00
2019-05-20T23:20:50.451Z,10.70
2019-05-20T23:23:54.142Z,8.73
2019-05-20T23:26:58.150Z,8.67
2019-05-20T23:30:02.350Z,7.77
2019-05-20T23:33:06.043Z,9.77
2019-05-20T23:36:10.089Z,10.60
2019-05-20T23:39:13.777Z,7.70
2019-05-20T23:42:17.484Z,10.70
2019-05-20T23:45:21.181Z,7.33
2019-05-20T23:48:24.869Z,8.77
2019-05-20T23:51:28.577Z,8.17
2019-05-20T23:54:32.266Z,8.97
2019-05-20T23:57:36.365Z,7.93
